RJAO(METAR)
02/28 07:00
METAR RJAO 272200Z 03008KT 9999 FEW010 SCT025 BKN070 18/14 Q1017 RMK
1CU010 4CU025 7AC070 A3006 27D 22.1 17.2 42.5=
戻る
トップページへ戻る
IMOC Co,.Ltd.